sensor_id;sensor_type;location;lat;lon;timestamp;P1;durP1;ratioP1;P2;durP2;ratioP2
9117;SDS011;4594;50.994;7.126;2022-07-15T00:00:38;1.73;;;1.63;;
9117;SDS011;4594;50.994;7.126;2022-07-15T00:03:04;1.70;;;1.60;;
9117;SDS011;4594;50.994;7.126;2022-07-15T00:05:29;2.67;;;1.70;;
9117;SDS011;4594;50.994;7.126;2022-07-15T00:07:56;1.50;;;1.40;;
9117;SDS011;4594;50.994;7.126;2022-07-15T00:10:25;1.60;;;1.50;;
9117;SDS011;4594;50.994;7.126;2022-07-15T00:12:58;1.83;;;1.70;;
9117;SDS011;4594;50.994;7.126;2022-07-15T00:15:27;1.70;;;1.60;;
9117;SDS011;4594;50.994;7.126;2022-07-15T00:17:56;1.60;;;1.50;;
9117;SDS011;4594;50.994;7.126;2022-07-15T00:20:26;1.80;;;1.70;;
9117;SDS011;4594;50.994;7.126;2022-07-15T00:22:58;3.37;;;1.93;;
9117;SDS011;4594;50.994;7.126;2022-07-15T00:25:29;1.97;;;1.73;;
9117;SDS011;4594;50.994;7.126;2022-07-15T00:27:57;1.60;;;1.50;;
9117;SDS011;4594;50.994;7.126;2022-07-15T00:30:39;1.73;;;1.60;;
9117;SDS011;4594;50.994;7.126;2022-07-15T00:33:07;1.80;;;1.70;;
9117;SDS011;4594;50.994;7.126;2022-07-15T00:35:35;2.53;;;1.87;;
9117;SDS011;4594;50.994;7.126;2022-07-15T00:38:02;1.77;;;1.70;;
9117;SDS011;4594;50.994;7.126;2022-07-15T00:40:29;1.83;;;1.73;;
9117;SDS011;4594;50.994;7.126;2022-07-15T00:42:55;2.43;;;1.67;;
9117;SDS011;4594;50.994;7.126;2022-07-15T00:45:22;3.90;;;1.80;;
9117;SDS011;4594;50.994;7.126;2022-07-15T00:47:53;1.60;;;1.50;;
9117;SDS011;4594;50.994;7.126;2022-07-15T00:50:22;2.70;;;1.93;;
9117;SDS011;4594;50.994;7.126;2022-07-15T00:53:04;1.60;;;1.60;;
9117;SDS011;4594;50.994;7.126;2022-07-15T00:55:31;1.70;;;1.60;;
9117;SDS011;4594;50.994;7.126;2022-07-15T00:58:02;1.80;;;1.70;;
9117;SDS011;4594;50.994;7.126;2022-07-15T01:00:30;1.83;;;1.67;;
9117;SDS011;4594;50.994;7.126;2022-07-15T01:02:57;2.13;;;2.03;;
9117;SDS011;4594;50.994;7.126;2022-07-15T01:05:25;1.83;;;1.73;;
9117;SDS011;4594;50.994;7.126;2022-07-15T01:07:51;2.50;;;1.93;;
9117;SDS011;4594;50.994;7.126;2022-07-15T01:10:19;2.00;;;1.80;;
9117;SDS011;4594;50.994;7.126;2022-07-15T01:12:47;1.83;;;1.80;;
9117;SDS011;4594;50.994;7.126;2022-07-15T01:15:15;1.80;;;1.70;;
9117;SDS011;4594;50.994;7.126;2022-07-15T01:17:43;2.40;;;1.90;;
9117;SDS011;4594;50.994;7.126;2022-07-15T01:20:10;1.70;;;1.60;;
9117;SDS011;4594;50.994;7.126;2022-07-15T01:22:38;1.63;;;1.63;;
9117;SDS011;4594;50.994;7.126;2022-07-15T01:25:05;2.70;;;1.80;;
9117;SDS011;4594;50.994;7.126;2022-07-15T01:27:31;3.07;;;2.00;;
9117;SDS011;4594;50.994;7.126;2022-07-15T01:29:57;2.60;;;1.90;;
9117;SDS011;4594;50.994;7.126;2022-07-15T01:32:25;1.60;;;1.60;;
9117;SDS011;4594;50.994;7.126;2022-07-15T01:34:52;1.87;;;1.70;;
9117;SDS011;4594;50.994;7.126;2022-07-15T01:37:17;2.60;;;1.73;;
9117;SDS011;4594;50.994;7.126;2022-07-15T01:39:44;1.97;;;1.80;;
9117;SDS011;4594;50.994;7.126;2022-07-15T01:42:10;1.57;;;1.47;;
9117;SDS011;4594;50.994;7.126;2022-07-15T01:44:35;1.60;;;1.60;;
9117;SDS011;4594;50.994;7.126;2022-07-15T01:47:02;2.10;;;1.73;;
9117;SDS011;4594;50.994;7.126;2022-07-15T01:49:28;2.10;;;1.90;;
9117;SDS011;4594;50.994;7.126;2022-07-15T01:51:58;2.10;;;1.57;;
9117;SDS011;4594;50.994;7.126;2022-07-15T01:54:26;3.17;;;2.30;;
9117;SDS011;4594;50.994;7.126;2022-07-15T01:56:54;7.87;;;2.00;;
9117;SDS011;4594;50.994;7.126;2022-07-15T01:59:21;1.90;;;1.80;;
9117;SDS011;4594;50.994;7.126;2022-07-15T02:01:49;4.37;;;1.80;;
9117;SDS011;4594;50.994;7.126;2022-07-15T02:04:16;1.90;;;1.80;;
9117;SDS011;4594;50.994;7.126;2022-07-15T02:06:43;1.60;;;1.50;;
9117;SDS011;4594;50.994;7.126;2022-07-15T02:09:09;1.70;;;1.57;;
9117;SDS011;4594;50.994;7.126;2022-07-15T02:11:35;2.17;;;1.77;;
9117;SDS011;4594;50.994;7.126;2022-07-15T02:14:01;2.43;;;2.23;;
9117;SDS011;4594;50.994;7.126;2022-07-15T02:16:31;4.53;;;1.87;;
9117;SDS011;4594;50.994;7.126;2022-07-15T02:18:58;3.20;;;2.10;;
9117;SDS011;4594;50.994;7.126;2022-07-15T02:21:25;1.87;;;1.77;;
9117;SDS011;4594;50.994;7.126;2022-07-15T02:23:52;3.90;;;1.90;;
9117;SDS011;4594;50.994;7.126;2022-07-15T02:26:19;2.50;;;2.07;;
9117;SDS011;4594;50.994;7.126;2022-07-15T02:28:45;3.70;;;2.00;;
9117;SDS011;4594;50.994;7.126;2022-07-15T02:31:11;2.33;;;1.83;;
9117;SDS011;4594;50.994;7.126;2022-07-15T02:33:37;1.80;;;1.70;;
9117;SDS011;4594;50.994;7.126;2022-07-15T02:36:04;3.47;;;2.10;;
9117;SDS011;4594;50.994;7.126;2022-07-15T02:38:31;2.27;;;2.00;;
9117;SDS011;4594;50.994;7.126;2022-07-15T02:40:56;2.90;;;1.80;;
9117;SDS011;4594;50.994;7.126;2022-07-15T02:43:22;4.97;;;2.10;;
9117;SDS011;4594;50.994;7.126;2022-07-15T02:45:48;3.53;;;1.80;;
9117;SDS011;4594;50.994;7.126;2022-07-15T02:48:13;2.67;;;1.93;;
9117;SDS011;4594;50.994;7.126;2022-07-15T02:50:40;2.27;;;2.00;;
9117;SDS011;4594;50.994;7.126;2022-07-15T02:53:06;3.93;;;1.77;;
9117;SDS011;4594;50.994;7.126;2022-07-15T02:55:33;3.90;;;1.70;;
9117;SDS011;4594;50.994;7.126;2022-07-15T02:57:59;2.93;;;1.90;;
9117;SDS011;4594;50.994;7.126;2022-07-15T03:00:25;2.73;;;1.73;;
9117;SDS011;4594;50.994;7.126;2022-07-15T03:02:51;2.40;;;2.20;;
9117;SDS011;4594;50.994;7.126;2022-07-15T03:05:17;3.67;;;1.90;;
9117;SDS011;4594;50.994;7.126;2022-07-15T03:07:43;2.30;;;1.97;;
9117;SDS011;4594;50.994;7.126;2022-07-15T03:10:10;3.90;;;2.17;;
9117;SDS011;4594;50.994;7.126;2022-07-15T03:12:36;2.10;;;1.93;;
9117;SDS011;4594;50.994;7.126;2022-07-15T03:15:02;1.83;;;1.73;;
9117;SDS011;4594;50.994;7.126;2022-07-15T03:17:29;1.83;;;1.67;;
9117;SDS011;4594;50.994;7.126;2022-07-15T03:19:55;2.60;;;2.20;;
9117;SDS011;4594;50.994;7.126;2022-07-15T03:22:21;2.93;;;1.90;;
9117;SDS011;4594;50.994;7.126;2022-07-15T03:24:48;5.33;;;1.70;;
9117;SDS011;4594;50.994;7.126;2022-07-15T03:27:14;2.27;;;2.00;;
9117;SDS011;4594;50.994;7.126;2022-07-15T03:29:41;4.40;;;1.97;;
9117;SDS011;4594;50.994;7.126;2022-07-15T03:32:08;4.20;;;1.93;;
9117;SDS011;4594;50.994;7.126;2022-07-15T03:34:35;2.83;;;1.97;;
9117;SDS011;4594;50.994;7.126;2022-07-15T03:37:02;3.57;;;2.00;;
9117;SDS011;4594;50.994;7.126;2022-07-15T03:39:28;2.50;;;1.90;;
9117;SDS011;4594;50.994;7.126;2022-07-15T03:41:54;5.13;;;2.23;;
9117;SDS011;4594;50.994;7.126;2022-07-15T03:44:20;5.93;;;1.90;;
9117;SDS011;4594;50.994;7.126;2022-07-15T03:46:46;2.30;;;1.90;;
9117;SDS011;4594;50.994;7.126;2022-07-15T03:49:12;3.57;;;1.83;;
9117;SDS011;4594;50.994;7.126;2022-07-15T03:51:39;2.27;;;1.73;;
9117;SDS011;4594;50.994;7.126;2022-07-15T03:54:05;5.40;;;2.00;;
9117;SDS011;4594;50.994;7.126;2022-07-15T03:56:32;1.77;;;1.63;;
9117;SDS011;4594;50.994;7.126;2022-07-15T03:58:58;2.40;;;1.87;;
9117;SDS011;4594;50.994;7.126;2022-07-15T04:01:25;7.83;;;2.10;;
9117;SDS011;4594;50.994;7.126;2022-07-15T04:03:51;3.23;;;1.90;;
9117;SDS011;4594;50.994;7.126;2022-07-15T04:06:18;2.00;;;1.90;;
9117;SDS011;4594;50.994;7.126;2022-07-15T04:08:46;2.53;;;2.03;;
9117;SDS011;4594;50.994;7.126;2022-07-15T04:11:12;4.13;;;2.17;;
9117;SDS011;4594;50.994;7.126;2022-07-15T04:13:39;4.37;;;2.20;;
9117;SDS011;4594;50.994;7.126;2022-07-15T04:16:06;3.57;;;2.13;;
9117;SDS011;4594;50.994;7.126;2022-07-15T04:18:34;3.53;;;2.20;;
9117;SDS011;4594;50.994;7.126;2022-07-15T04:21:00;4.10;;;2.10;;
9117;SDS011;4594;50.994;7.126;2022-07-15T04:23:27;3.63;;;1.97;;
9117;SDS011;4594;50.994;7.126;2022-07-15T04:25:53;3.10;;;2.00;;
9117;SDS011;4594;50.994;7.126;2022-07-15T04:28:19;2.03;;;1.90;;
9117;SDS011;4594;50.994;7.126;2022-07-15T04:30:46;1.63;;;1.53;;
9117;SDS011;4594;50.994;7.126;2022-07-15T04:33:11;3.17;;;1.83;;
9117;SDS011;4594;50.994;7.126;2022-07-15T04:35:37;3.80;;;2.13;;
9117;SDS011;4594;50.994;7.126;2022-07-15T04:38:03;3.40;;;1.80;;
9117;SDS011;4594;50.994;7.126;2022-07-15T04:40:30;3.63;;;1.63;;
9117;SDS011;4594;50.994;7.126;2022-07-15T04:42:59;1.87;;;1.63;;
9117;SDS011;4594;50.994;7.126;2022-07-15T04:45:26;3.10;;;1.53;;
9117;SDS011;4594;50.994;7.126;2022-07-15T04:47:52;2.80;;;1.73;;
9117;SDS011;4594;50.994;7.126;2022-07-15T04:50:19;2.77;;;1.77;;
9117;SDS011;4594;50.994;7.126;2022-07-15T04:53:04;4.57;;;1.60;;
9117;SDS011;4594;50.994;7.126;2022-07-15T04:55:30;2.57;;;1.93;;
9117;SDS011;4594;50.994;7.126;2022-07-15T04:57:56;1.73;;;1.63;;
9117;SDS011;4594;50.994;7.126;2022-07-15T05:00:22;1.90;;;1.80;;
9117;SDS011;4594;50.994;7.126;2022-07-15T05:02:48;3.00;;;1.70;;
9117;SDS011;4594;50.994;7.126;2022-07-15T05:05:14;2.63;;;2.20;;
9117;SDS011;4594;50.994;7.126;2022-07-15T05:07:40;2.07;;;1.70;;
9117;SDS011;4594;50.994;7.126;2022-07-15T05:10:06;3.70;;;2.10;;
9117;SDS011;4594;50.994;7.126;2022-07-15T05:12:34;3.47;;;2.00;;
9117;SDS011;4594;50.994;7.126;2022-07-15T05:15:00;4.47;;;1.93;;
9117;SDS011;4594;50.994;7.126;2022-07-15T05:17:27;3.80;;;2.10;;
9117;SDS011;4594;50.994;7.126;2022-07-15T05:19:53;1.77;;;1.63;;
9117;SDS011;4594;50.994;7.126;2022-07-15T05:22:19;3.73;;;1.87;;
9117;SDS011;4594;50.994;7.126;2022-07-15T05:24:45;3.13;;;1.83;;
9117;SDS011;4594;50.994;7.126;2022-07-15T05:27:12;2.93;;;2.00;;
9117;SDS011;4594;50.994;7.126;2022-07-15T05:29:37;3.87;;;2.00;;
9117;SDS011;4594;50.994;7.126;2022-07-15T05:32:03;4.83;;;2.00;;
9117;SDS011;4594;50.994;7.126;2022-07-15T05:34:29;3.93;;;2.37;;
9117;SDS011;4594;50.994;7.126;2022-07-15T05:36:55;3.77;;;1.87;;
9117;SDS011;4594;50.994;7.126;2022-07-15T05:39:21;3.63;;;1.77;;
9117;SDS011;4594;50.994;7.126;2022-07-15T05:41:47;5.00;;;2.00;;
9117;SDS011;4594;50.994;7.126;2022-07-15T05:44:13;6.00;;;2.00;;
9117;SDS011;4594;50.994;7.126;2022-07-15T05:46:39;5.10;;;2.10;;
9117;SDS011;4594;50.994;7.126;2022-07-15T05:49:05;2.07;;;1.67;;
9117;SDS011;4594;50.994;7.126;2022-07-15T05:51:31;6.37;;;1.80;;
9117;SDS011;4594;50.994;7.126;2022-07-15T05:53:58;3.70;;;1.70;;
9117;SDS011;4594;50.994;7.126;2022-07-15T05:56:24;2.10;;;1.80;;
9117;SDS011;4594;50.994;7.126;2022-07-15T05:58:50;3.37;;;1.80;;
9117;SDS011;4594;50.994;7.126;2022-07-15T06:01:16;5.77;;;1.90;;
9117;SDS011;4594;50.994;7.126;2022-07-15T06:03:42;6.40;;;1.70;;
9117;SDS011;4594;50.994;7.126;2022-07-15T06:06:07;3.37;;;1.70;;
9117;SDS011;4594;50.994;7.126;2022-07-15T06:08:33;4.40;;;1.93;;
9117;SDS011;4594;50.994;7.126;2022-07-15T06:11:00;6.30;;;1.70;;
9117;SDS011;4594;50.994;7.126;2022-07-15T06:13:26;5.97;;;1.97;;
9117;SDS011;4594;50.994;7.126;2022-07-15T06:15:53;4.63;;;1.70;;
9117;SDS011;4594;50.994;7.126;2022-07-15T06:18:18;9.63;;;1.90;;
9117;SDS011;4594;50.994;7.126;2022-07-15T06:20:44;3.20;;;1.50;;
9117;SDS011;4594;50.994;7.126;2022-07-15T06:23:10;4.40;;;1.60;;
9117;SDS011;4594;50.994;7.126;2022-07-15T06:25:36;4.43;;;1.50;;
9117;SDS011;4594;50.994;7.126;2022-07-15T06:28:02;10.20;;;1.70;;
9117;SDS011;4594;50.994;7.126;2022-07-15T06:30:29;1.33;;;1.10;;
9117;SDS011;4594;50.994;7.126;2022-07-15T06:32:55;5.93;;;1.40;;
9117;SDS011;4594;50.994;7.126;2022-07-15T06:35:23;1.90;;;1.63;;
9117;SDS011;4594;50.994;7.126;2022-07-15T06:37:49;4.73;;;1.63;;
9117;SDS011;4594;50.994;7.126;2022-07-15T06:40:16;1.57;;;1.20;;
9117;SDS011;4594;50.994;7.126;2022-07-15T06:42:42;7.10;;;1.53;;
9117;SDS011;4594;50.994;7.126;2022-07-15T06:45:09;3.07;;;1.40;;
9117;SDS011;4594;50.994;7.126;2022-07-15T06:47:35;1.13;;;1.10;;
9117;SDS011;4594;50.994;7.126;2022-07-15T06:50:05;3.10;;;1.10;;
9117;SDS011;4594;50.994;7.126;2022-07-15T06:52:31;1.30;;;1.20;;
9117;SDS011;4594;50.994;7.126;2022-07-15T06:54:57;2.43;;;1.40;;
9117;SDS011;4594;50.994;7.126;2022-07-15T06:57:22;4.13;;;1.33;;
9117;SDS011;4594;50.994;7.126;2022-07-15T06:59:48;1.97;;;0.97;;
9117;SDS011;4594;50.994;7.126;2022-07-15T07:02:14;3.37;;;1.30;;
9117;SDS011;4594;50.994;7.126;2022-07-15T07:04:40;2.80;;;1.13;;
9117;SDS011;4594;50.994;7.126;2022-07-15T07:07:07;3.90;;;1.10;;
9117;SDS011;4594;50.994;7.126;2022-07-15T07:09:33;2.93;;;1.20;;
9117;SDS011;4594;50.994;7.126;2022-07-15T07:11:59;2.70;;;1.40;;
9117;SDS011;4594;50.994;7.126;2022-07-15T07:14:24;4.63;;;1.30;;
9117;SDS011;4594;50.994;7.126;2022-07-15T07:16:50;4.50;;;1.23;;
9117;SDS011;4594;50.994;7.126;2022-07-15T07:19:16;3.57;;;1.67;;
9117;SDS011;4594;50.994;7.126;2022-07-15T07:21:42;2.43;;;1.30;;
9117;SDS011;4594;50.994;7.126;2022-07-15T07:24:07;2.23;;;1.00;;
9117;SDS011;4594;50.994;7.126;2022-07-15T07:26:34;1.90;;;1.03;;
9117;SDS011;4594;50.994;7.126;2022-07-15T07:28:59;4.87;;;1.50;;
9117;SDS011;4594;50.994;7.126;2022-07-15T07:31:25;4.63;;;1.63;;
9117;SDS011;4594;50.994;7.126;2022-07-15T07:33:55;2.47;;;1.30;;
9117;SDS011;4594;50.994;7.126;2022-07-15T07:36:22;2.80;;;1.30;;
9117;SDS011;4594;50.994;7.126;2022-07-15T07:38:49;1.03;;;1.00;;
9117;SDS011;4594;50.994;7.126;2022-07-15T07:41:15;1.20;;;1.07;;
9117;SDS011;4594;50.994;7.126;2022-07-15T07:43:41;2.03;;;1.30;;
9117;SDS011;4594;50.994;7.126;2022-07-15T07:46:07;3.07;;;1.13;;
9117;SDS011;4594;50.994;7.126;2022-07-15T07:48:33;1.27;;;0.70;;
9117;SDS011;4594;50.994;7.126;2022-07-15T07:51:00;1.47;;;0.97;;
9117;SDS011;4594;50.994;7.126;2022-07-15T07:53:25;1.73;;;1.00;;
9117;SDS011;4594;50.994;7.126;2022-07-15T07:55:51;2.03;;;0.83;;
9117;SDS011;4594;50.994;7.126;2022-07-15T07:58:17;0.70;;;0.70;;
9117;SDS011;4594;50.994;7.126;2022-07-15T08:00:46;0.93;;;0.70;;
9117;SDS011;4594;50.994;7.126;2022-07-15T08:03:11;0.90;;;0.80;;
9117;SDS011;4594;50.994;7.126;2022-07-15T08:05:37;1.00;;;0.77;;
9117;SDS011;4594;50.994;7.126;2022-07-15T08:10:40;1.50;;;0.70;;
9117;SDS011;4594;50.994;7.126;2022-07-15T08:13:07;1.87;;;0.80;;
9117;SDS011;4594;50.994;7.126;2022-07-15T08:15:33;0.57;;;0.47;;
9117;SDS011;4594;50.994;7.126;2022-07-15T08:20:26;0.57;;;0.50;;
9117;SDS011;4594;50.994;7.126;2022-07-15T08:22:53;1.27;;;0.90;;
9117;SDS011;4594;50.994;7.126;2022-07-15T08:25:23;0.33;;;0.33;;
9117;SDS011;4594;50.994;7.126;2022-07-15T08:27:54;0.33;;;0.30;;
9117;SDS011;4594;50.994;7.126;2022-07-15T08:30:22;3.50;;;0.60;;
9117;SDS011;4594;50.994;7.126;2022-07-15T08:32:48;2.60;;;0.60;;
9117;SDS011;4594;50.994;7.126;2022-07-15T08:35:14;1.40;;;0.87;;
9117;SDS011;4594;50.994;7.126;2022-07-15T08:37:40;1.70;;;0.87;;
9117;SDS011;4594;50.994;7.126;2022-07-15T08:40:05;1.00;;;0.80;;
9117;SDS011;4594;50.994;7.126;2022-07-15T08:42:35;2.30;;;0.50;;
9117;SDS011;4594;50.994;7.126;2022-07-15T08:45:08;4.63;;;0.93;;
9117;SDS011;4594;50.994;7.126;2022-07-15T08:47:37;2.20;;;0.70;;
9117;SDS011;4594;50.994;7.126;2022-07-15T08:50:06;1.10;;;0.60;;
9117;SDS011;4594;50.994;7.126;2022-07-15T08:52:36;0.60;;;0.60;;
9117;SDS011;4594;50.994;7.126;2022-07-15T08:55:03;1.50;;;0.83;;
9117;SDS011;4594;50.994;7.126;2022-07-15T08:57:30;1.50;;;0.73;;
9117;SDS011;4594;50.994;7.126;2022-07-15T08:59:56;1.93;;;0.70;;
9117;SDS011;4594;50.994;7.126;2022-07-15T09:02:22;1.17;;;0.80;;
9117;SDS011;4594;50.994;7.126;2022-07-15T09:10:45;2.73;;;1.30;;
9117;SDS011;4594;50.994;7.126;2022-07-15T09:18:41;1.60;;;0.80;;
9117;SDS011;4594;50.994;7.126;2022-07-15T09:21:22;0.77;;;0.77;;
9117;SDS011;4594;50.994;7.126;2022-07-15T09:23:53;0.70;;;0.70;;
9117;SDS011;4594;50.994;7.126;2022-07-15T09:26:32;1.17;;;0.80;;
9117;SDS011;4594;50.994;7.126;2022-07-15T09:29:02;3.20;;;0.70;;
9117;SDS011;4594;50.994;7.126;2022-07-15T09:31:58;0.60;;;0.60;;
9117;SDS011;4594;50.994;7.126;2022-07-15T09:37:55;1.03;;;0.70;;
9117;SDS011;4594;50.994;7.126;2022-07-15T09:40:23;0.40;;;0.40;;
9117;SDS011;4594;50.994;7.126;2022-07-15T09:43:04;1.17;;;0.53;;
9117;SDS011;4594;50.994;7.126;2022-07-15T09:45:34;0.63;;;0.63;;
9117;SDS011;4594;50.994;7.126;2022-07-15T09:48:04;1.87;;;0.90;;
9117;SDS011;4594;50.994;7.126;2022-07-15T09:50:37;1.87;;;0.73;;
9117;SDS011;4594;50.994;7.126;2022-07-15T09:53:04;0.90;;;0.70;;
9117;SDS011;4594;50.994;7.126;2022-07-15T09:55:42;1.20;;;1.00;;
9117;SDS011;4594;50.994;7.126;2022-07-15T09:58:08;2.10;;;0.93;;
9117;SDS011;4594;50.994;7.126;2022-07-15T10:00:34;1.27;;;1.00;;
9117;SDS011;4594;50.994;7.126;2022-07-15T10:03:02;3.27;;;0.97;;
9117;SDS011;4594;50.994;7.126;2022-07-15T10:05:29;0.97;;;0.83;;
9117;SDS011;4594;50.994;7.126;2022-07-15T10:07:56;1.50;;;0.90;;
9117;SDS011;4594;50.994;7.126;2022-07-15T10:10:26;0.80;;;0.80;;
9117;SDS011;4594;50.994;7.126;2022-07-15T10:27:09;1.03;;;0.80;;
9117;SDS011;4594;50.994;7.126;2022-07-15T10:29:47;2.33;;;0.90;;
9117;SDS011;4594;50.994;7.126;2022-07-15T10:32:14;1.60;;;0.90;;
9117;SDS011;4594;50.994;7.126;2022-07-15T10:34:40;0.83;;;0.70;;
9117;SDS011;4594;50.994;7.126;2022-07-15T10:37:08;1.17;;;0.90;;
9117;SDS011;4594;50.994;7.126;2022-07-15T10:39:48;1.63;;;0.70;;
9117;SDS011;4594;50.994;7.126;2022-07-15T10:42:17;0.60;;;0.60;;
9117;SDS011;4594;50.994;7.126;2022-07-15T10:44:49;1.83;;;0.80;;
9117;SDS011;4594;50.994;7.126;2022-07-15T10:47:29;0.80;;;0.70;;
9117;SDS011;4594;50.994;7.126;2022-07-15T10:49:55;1.50;;;0.63;;
9117;SDS011;4594;50.994;7.126;2022-07-15T10:52:22;2.00;;;0.93;;
9117;SDS011;4594;50.994;7.126;2022-07-15T10:57:21;0.87;;;0.87;;
9117;SDS011;4594;50.994;7.126;2022-07-15T11:03:03;1.33;;;0.60;;
9117;SDS011;4594;50.994;7.126;2022-07-15T11:11:44;1.60;;;0.80;;
9117;SDS011;4594;50.994;7.126;2022-07-15T11:13:45;0.83;;;0.77;;
9117;SDS011;4594;50.994;7.126;2022-07-15T11:16:19;2.37;;;1.00;;
9117;SDS011;4594;50.994;7.126;2022-07-15T11:18:47;1.00;;;0.90;;
9117;SDS011;4594;50.994;7.126;2022-07-15T11:21:22;0.80;;;0.80;;
9117;SDS011;4594;50.994;7.126;2022-07-15T11:23:49;1.00;;;0.90;;
9117;SDS011;4594;50.994;7.126;2022-07-15T11:26:19;0.93;;;0.87;;
9117;SDS011;4594;50.994;7.126;2022-07-15T11:28:48;1.23;;;0.70;;
9117;SDS011;4594;50.994;7.126;2022-07-15T11:31:15;2.13;;;1.20;;
9117;SDS011;4594;50.994;7.126;2022-07-15T11:33:41;1.20;;;1.10;;
9117;SDS011;4594;50.994;7.126;2022-07-15T11:36:06;1.37;;;1.23;;
9117;SDS011;4594;50.994;7.126;2022-07-15T11:38:43;1.20;;;1.10;;
9117;SDS011;4594;50.994;7.126;2022-07-15T11:41:09;2.27;;;1.00;;
9117;SDS011;4594;50.994;7.126;2022-07-15T11:44:00;3.37;;;1.10;;
9117;SDS011;4594;50.994;7.126;2022-07-15T11:46:47;3.63;;;1.30;;
9117;SDS011;4594;50.994;7.126;2022-07-15T11:49:30;1.33;;;1.23;;
9117;SDS011;4594;50.994;7.126;2022-07-15T11:51:58;1.27;;;1.07;;
9117;SDS011;4594;50.994;7.126;2022-07-15T11:54:25;1.60;;;1.20;;
9117;SDS011;4594;50.994;7.126;2022-07-15T11:56:52;1.30;;;1.00;;
9117;SDS011;4594;50.994;7.126;2022-07-15T11:59:22;1.00;;;1.00;;
9117;SDS011;4594;50.994;7.126;2022-07-15T12:01:50;1.43;;;0.93;;
9117;SDS011;4594;50.994;7.126;2022-07-15T12:04:36;1.47;;;1.10;;
9117;SDS011;4594;50.994;7.126;2022-07-15T12:07:03;2.20;;;1.20;;
9117;SDS011;4594;50.994;7.126;2022-07-15T12:09:42;2.00;;;1.00;;
9117;SDS011;4594;50.994;7.126;2022-07-15T12:12:11;2.73;;;1.07;;
9117;SDS011;4594;50.994;7.126;2022-07-15T12:14:38;5.30;;;1.33;;
9117;SDS011;4594;50.994;7.126;2022-07-15T12:17:04;2.73;;;1.30;;
9117;SDS011;4594;50.994;7.126;2022-07-15T12:19:31;2.83;;;1.50;;
9117;SDS011;4594;50.994;7.126;2022-07-15T12:22:00;0.77;;;0.77;;
9117;SDS011;4594;50.994;7.126;2022-07-15T12:24:40;2.07;;;1.10;;
9117;SDS011;4594;50.994;7.126;2022-07-15T12:27:15;2.67;;;0.90;;
9117;SDS011;4594;50.994;7.126;2022-07-15T12:29:42;3.97;;;1.30;;
9117;SDS011;4594;50.994;7.126;2022-07-15T12:32:09;2.20;;;1.10;;
9117;SDS011;4594;50.994;7.126;2022-07-15T12:37:17;5.13;;;0.80;;
9117;SDS011;4594;50.994;7.126;2022-07-15T12:42:25;2.20;;;1.13;;
9117;SDS011;4594;50.994;7.126;2022-07-15T12:45:04;30.67;;;2.87;;
9117;SDS011;4594;50.994;7.126;2022-07-15T12:48:09;1.50;;;1.40;;
9117;SDS011;4594;50.994;7.126;2022-07-15T12:53:16;1.30;;;1.07;;
9117;SDS011;4594;50.994;7.126;2022-07-15T12:55:45;1.20;;;1.07;;
9117;SDS011;4594;50.994;7.126;2022-07-15T12:58:15;1.17;;;1.07;;
9117;SDS011;4594;50.994;7.126;2022-07-15T13:00:52;1.20;;;1.10;;
9117;SDS011;4594;50.994;7.126;2022-07-15T13:03:34;1.37;;;0.90;;
9117;SDS011;4594;50.994;7.126;2022-07-15T13:06:00;1.67;;;0.90;;
9117;SDS011;4594;50.994;7.126;2022-07-15T13:08:27;1.00;;;1.00;;
9117;SDS011;4594;50.994;7.126;2022-07-15T13:10:59;1.23;;;1.00;;
9117;SDS011;4594;50.994;7.126;2022-07-15T13:13:29;2.47;;;0.80;;
9117;SDS011;4594;50.994;7.126;2022-07-15T13:16:04;0.70;;;0.70;;
9117;SDS011;4594;50.994;7.126;2022-07-15T13:18:30;1.00;;;1.00;;
9117;SDS011;4594;50.994;7.126;2022-07-15T13:20:58;1.60;;;1.07;;
9117;SDS011;4594;50.994;7.126;2022-07-15T13:23:24;5.00;;;1.20;;
9117;SDS011;4594;50.994;7.126;2022-07-15T13:25:51;2.00;;;0.90;;
9117;SDS011;4594;50.994;7.126;2022-07-15T13:28:19;2.00;;;1.00;;
9117;SDS011;4594;50.994;7.126;2022-07-15T13:30:45;1.00;;;0.90;;
9117;SDS011;4594;50.994;7.126;2022-07-15T13:33:12;1.00;;;0.87;;
9117;SDS011;4594;50.994;7.126;2022-07-15T13:35:38;1.03;;;0.97;;
9117;SDS011;4594;50.994;7.126;2022-07-15T13:38:03;0.80;;;0.80;;
9117;SDS011;4594;50.994;7.126;2022-07-15T13:40:29;1.10;;;1.00;;
9117;SDS011;4594;50.994;7.126;2022-07-15T13:42:55;1.27;;;0.90;;
9117;SDS011;4594;50.994;7.126;2022-07-15T13:45:21;1.90;;;0.87;;
9117;SDS011;4594;50.994;7.126;2022-07-15T13:47:47;2.43;;;1.10;;
9117;SDS011;4594;50.994;7.126;2022-07-15T13:50:13;5.60;;;1.00;;
9117;SDS011;4594;50.994;7.126;2022-07-15T13:52:58;1.33;;;0.70;;
9117;SDS011;4594;50.994;7.126;2022-07-15T13:55:25;1.03;;;0.93;;
9117;SDS011;4594;50.994;7.126;2022-07-15T13:57:51;2.20;;;1.10;;
9117;SDS011;4594;50.994;7.126;2022-07-15T14:00:18;0.60;;;0.60;;
9117;SDS011;4594;50.994;7.126;2022-07-15T14:02:50;1.10;;;1.00;;
9117;SDS011;4594;50.994;7.126;2022-07-15T14:05:18;2.47;;;1.23;;
9117;SDS011;4594;50.994;7.126;2022-07-15T14:07:45;1.50;;;1.17;;
9117;SDS011;4594;50.994;7.126;2022-07-15T14:10:11;3.07;;;0.90;;
9117;SDS011;4594;50.994;7.126;2022-07-15T14:12:38;2.83;;;0.90;;
9117;SDS011;4594;50.994;7.126;2022-07-15T14:15:04;0.80;;;0.80;;
9117;SDS011;4594;50.994;7.126;2022-07-15T14:17:30;1.37;;;0.90;;
9117;SDS011;4594;50.994;7.126;2022-07-15T14:19:56;1.57;;;0.87;;
9117;SDS011;4594;50.994;7.126;2022-07-15T14:22:23;1.77;;;1.00;;
9117;SDS011;4594;50.994;7.126;2022-07-15T14:24:52;0.90;;;0.90;;
9117;SDS011;4594;50.994;7.126;2022-07-15T14:27:18;3.03;;;1.20;;
9117;SDS011;4594;50.994;7.126;2022-07-15T14:29:45;1.17;;;0.93;;
9117;SDS011;4594;50.994;7.126;2022-07-15T14:32:11;1.20;;;1.10;;
9117;SDS011;4594;50.994;7.126;2022-07-15T14:34:36;3.10;;;0.90;;
9117;SDS011;4594;50.994;7.126;2022-07-15T14:37:02;1.63;;;1.00;;
9117;SDS011;4594;50.994;7.126;2022-07-15T14:39:28;0.80;;;0.80;;
9117;SDS011;4594;50.994;7.126;2022-07-15T14:41:53;0.90;;;0.80;;
9117;SDS011;4594;50.994;7.126;2022-07-15T14:44:19;1.27;;;0.90;;
9117;SDS011;4594;50.994;7.126;2022-07-15T14:46:45;1.30;;;0.80;;
9117;SDS011;4594;50.994;7.126;2022-07-15T14:49:10;1.83;;;1.10;;
9117;SDS011;4594;50.994;7.126;2022-07-15T14:51:36;2.10;;;1.00;;
9117;SDS011;4594;50.994;7.126;2022-07-15T14:54:02;0.90;;;0.90;;
9117;SDS011;4594;50.994;7.126;2022-07-15T14:56:28;1.27;;;0.83;;
9117;SDS011;4594;50.994;7.126;2022-07-15T14:58:54;0.70;;;0.70;;
9117;SDS011;4594;50.994;7.126;2022-07-15T15:01:19;0.80;;;0.80;;
9117;SDS011;4594;50.994;7.126;2022-07-15T15:03:45;1.13;;;0.80;;
9117;SDS011;4594;50.994;7.126;2022-07-15T15:06:10;3.07;;;0.90;;
9117;SDS011;4594;50.994;7.126;2022-07-15T15:08:36;3.43;;;1.20;;
9117;SDS011;4594;50.994;7.126;2022-07-15T15:11:02;0.90;;;0.90;;
9117;SDS011;4594;50.994;7.126;2022-07-15T15:13:29;1.20;;;0.80;;
9117;SDS011;4594;50.994;7.126;2022-07-15T15:15:55;0.97;;;0.93;;
9117;SDS011;4594;50.994;7.126;2022-07-15T15:18:21;2.50;;;1.17;;
9117;SDS011;4594;50.994;7.126;2022-07-15T15:20:46;2.17;;;1.00;;
9117;SDS011;4594;50.994;7.126;2022-07-15T15:23:12;1.77;;;1.00;;
9117;SDS011;4594;50.994;7.126;2022-07-15T15:25:38;0.80;;;0.80;;
9117;SDS011;4594;50.994;7.126;2022-07-15T15:28:22;2.50;;;0.70;;
9117;SDS011;4594;50.994;7.126;2022-07-15T15:30:48;1.13;;;1.03;;
9117;SDS011;4594;50.994;7.126;2022-07-15T15:33:13;1.07;;;0.90;;
9117;SDS011;4594;50.994;7.126;2022-07-15T15:35:39;1.13;;;0.90;;
9117;SDS011;4594;50.994;7.126;2022-07-15T15:38:05;1.03;;;1.03;;
9117;SDS011;4594;50.994;7.126;2022-07-15T15:40:30;1.70;;;0.90;;
9117;SDS011;4594;50.994;7.126;2022-07-15T15:42:56;1.40;;;1.20;;
9117;SDS011;4594;50.994;7.126;2022-07-15T15:45:22;1.00;;;1.00;;
9117;SDS011;4594;50.994;7.126;2022-07-15T15:47:49;0.93;;;0.93;;
9117;SDS011;4594;50.994;7.126;2022-07-15T15:50:14;1.97;;;1.00;;
9117;SDS011;4594;50.994;7.126;2022-07-15T15:52:42;2.30;;;1.00;;
9117;SDS011;4594;50.994;7.126;2022-07-15T15:55:08;1.63;;;1.10;;
9117;SDS011;4594;50.994;7.126;2022-07-15T15:57:34;1.87;;;1.30;;
9117;SDS011;4594;50.994;7.126;2022-07-15T16:00:00;3.67;;;0.90;;
9117;SDS011;4594;50.994;7.126;2022-07-15T16:02:29;1.17;;;1.00;;
9117;SDS011;4594;50.994;7.126;2022-07-15T16:04:54;0.80;;;0.80;;
9117;SDS011;4594;50.994;7.126;2022-07-15T16:07:20;1.27;;;1.20;;
9117;SDS011;4594;50.994;7.126;2022-07-15T16:09:46;2.87;;;1.13;;
9117;SDS011;4594;50.994;7.126;2022-07-15T16:12:11;1.70;;;1.60;;